Cheney Center, Colorado
Current Conditions -  °F | °C
As of 6:15 AM on Thursday 27 Nov 2014 (Local Time) from K3K3 Reporting Station
Clear Clear  
Wind Chill: 24°   Ceiling: Unl
Heat Index: 30°   Visibility: 10mi
Dew Point: 21°   Wind: 6mph
Humidity: 69%   Direction: 180°S
Pressure: 30.34"   Gusts: NA
Location:  37.8253°N, 102.163°W
Report Text: K3K3 271315Z AUTO 18005KT 10SM CLR M01/M06 A3034 RMK AO2
Loading
Personal Weather Stations






























Interactive Weather Map New forecast layout! Learn more

10-Day Weather Forecast

Advertisements
Track Severe Weather on mobile